Historique des mesures à Cassis (13260), France
Quotidien Résumé Janvier 4, 2017 Unités:  US    Métrique   Métrique/US
« Précédent (Jour)
Suivant (Jour) »
Quotidien Hebdomadaire Mensuel Annuel Période au choix
  Maximum: Minimum: Moyenne:
Température: 32 °F 43 °F 46.8 °F
Point de rosée: 32 °F 19.8 °F 29.3 °F
Humidité: Humidity % 29 % 49 %
Vitesse du vent: WindSpeedKMH mph 0.0 mph 14.3 mph
Rafales: WindSpeedGustKMH mph - -
Vent:- - SSW
Pression: 0 in 29.8 in -
Précipitations: 0 in    
Historical Graphs
 
 
Mesures pour : Janvier 4, 2017
Heure Temperature Point de rosée Pression Vent Vitesse du vent Rafales Humidité Pluie (par heure) Conditions
32 °F 32 °F 0 in Calm     Humidity % 0 in SoftwareType W/m2
00:11 48.4 °F 34.9 °F 30.1 in NE 4.0 mph 4.0 mph 59 % 0 in open2300-1.11 W/m2
01:10 47.7 °F 33.6 °F 30.1 in North 4.3 mph 8.2 mph 58 % 0 in open2300-1.11 W/m2
02:11 47.3 °F 32.7 °F 30.1 in NE 5.8 mph 5.8 mph 57 % 0 in open2300-1.11 W/m2
03:10 46.6 °F 32.5 °F 30.1 in Calm   9.3 mph 58 % 0 in open2300-1.11 W/m2
04:11 46.2 °F 32.7 °F 30.1 in NW 5.5 mph 6.1 mph 59 % 0 in open2300-1.11 W/m2
05:10 46 °F 32.5 °F 30 in NNW 3.2 mph 3.2 mph 59 % 0 in open2300-1.11 W/m2
06:12 45.5 °F 32.7 °F 30 in NW 6.8 mph 6.8 mph 61 % 0 in open2300-1.11 W/m2
07:10 45.3 °F 33.4 °F 30 in NW 11.1 mph 13.7 mph 63 % 0 in open2300-1.11 W/m2
08:11 45 °F 33.4 °F 30 in NNW 6.4 mph 12.2 mph 64 % 0 in open2300-1.11 W/m2
09:10 44.6 °F 33.4 °F 30 in North 6.8 mph 11.1 mph 65 % 0 in open2300-1.11 W/m2
10:11 43 °F 30.7 °F 30 in WNW 9.3 mph 12.6 mph 62 % 0 in open2300-1.11 W/m2
11:10 44.8 °F 31.5 °F 30 in NNE 11.1 mph 11.1 mph 59 % 0 in open2300-1.11 W/m2
12:11 46.6 °F 30.7 °F 29.9 in East 8.2 mph 15.8 mph 54 % 0 in open2300-1.11 W/m2
13:10 48.7 °F 27.7 °F 29.9 in NW 22.7 mph 31.7 mph 44 % 0 in open2300-1.11 W/m2
14:11 52 °F 27 °F 29.9 in NNW 15.1 mph 16.6 mph 38 % 0 in open2300-1.11 W/m2
15:10 54 °F 24.1 °F 29.8 in NNE 25.6 mph 30.6 mph 31 % 0 in open2300-1.11 W/m2
16:11 52.3 °F 22.5 °F 29.8 in NNW 20.6 mph 22.7 mph 31 % 0 in open2300-1.11 W/m2
17:10 50.9 °F 20.7 °F 29.8 in NNW 32.0 mph 35.2 mph 30 % 0 in open2300-1.11 W/m2
18:11 51.1 °F 19.8 °F 29.8 in NNW 29.1 mph 32.3 mph 29 % 0 in open2300-1.11 W/m2
19:10 49.1 °F 21.7 °F 29.8 in NNE 25.3 mph 67.6 mph 34 % 0 in open2300-1.11 W/m2
20:11 47.3 °F 23.5 °F 29.8 in NNW 20.9 mph 32.8 mph 39 % 0 in open2300-1.11 W/m2
22:11 43.9 °F 29.7 °F 29.8 in NNW 31.7 mph 38.1 mph 57 % 0 in open2300-1.11 W/m2
23:10 43.2 °F 30.2 °F 29.8 in North 37.5 mph 64.8 mph 60 % 0 in open2300-1.11 W/m2
Observations météo à CASSIS
WU-History script by Weather Underground - 1 mb